createdAt,value
2022-09-04T00:00:16.123Z,95602.2
2022-09-04T00:01:18.319Z,95602
2022-09-04T00:02:20.255Z,95593.1
2022-09-04T00:03:22.735Z,95598.1
2022-09-04T00:04:25.705Z,95595.2
2022-09-04T00:05:28.439Z,95594.7
2022-09-04T00:06:33.333Z,95599.3
2022-09-04T00:07:35.539Z,95595
2022-09-04T00:08:38.025Z,95599.1
2022-09-04T00:09:40.212Z,95593.7
2022-09-04T00:10:42.694Z,95593.2
2022-09-04T00:11:45.173Z,95592.2
2022-09-04T00:12:47.654Z,95595.5
2022-09-04T00:13:49.845Z,95597.3
2022-09-04T00:14:52.321Z,95598.5
2022-09-04T00:15:54.524Z,95597.2
2022-09-04T00:16:57.294Z,95599.5
2022-09-04T00:18:00.228Z,95591.5
2022-09-04T00:19:02.429Z,95594.4
2022-09-04T00:20:04.943Z,95594.9
2022-09-04T00:21:06.847Z,95597.5
2022-09-04T00:22:09.310Z,95599.8
2022-09-04T00:23:11.786Z,95595.9
2022-09-04T00:24:13.979Z,95599.5
2022-09-04T00:25:16.480Z,95599.6
2022-09-04T00:27:23.681Z,95600.4
2022-09-04T00:28:26.354Z,95602.7
2022-09-04T00:29:28.822Z,95608.3
2022-09-04T00:30:31.496Z,95607.8
2022-09-04T00:31:33.778Z,95605.9
2022-09-04T00:32:36.251Z,95607.1
2022-09-04T00:33:38.720Z,95610.5
2022-09-04T00:34:41.196Z,95607.2
2022-09-04T00:35:43.672Z,95604.2
2022-09-04T00:37:50.868Z,95609.5
2022-09-04T00:38:53.340Z,95610.3
2022-09-04T00:39:55.979Z,95608.3
2022-09-04T00:40:58.558Z,95609
2022-09-04T00:42:01.030Z,95610.7
2022-09-04T00:43:03.227Z,95606.7
2022-09-04T00:44:05.414Z,95600.3
2022-09-04T00:46:13.219Z,95603.1
2022-09-04T00:47:15.863Z,95609.6
2022-09-04T00:48:18.582Z,95608.6
2022-09-04T00:49:21.069Z,95609.8
2022-09-04T00:50:23.542Z,95605.7
2022-09-04T00:51:25.743Z,95607.3
2022-09-04T00:53:33.203Z,95608.7
2022-09-04T00:54:35.681Z,95609.5
2022-09-04T00:55:38.153Z,95611.9
2022-09-04T00:56:40.359Z,95613.1
2022-09-04T00:57:42.824Z,95617.5
2022-09-04T00:58:45.316Z,95613.4
2022-09-04T00:59:47.528Z,95613.8
2022-09-04T01:00:50.027Z,95613.2
2022-09-04T01:01:53.305Z,95616.3
2022-09-04T01:02:56.100Z,95616.3
2022-09-04T01:03:59.724Z,95617.6
2022-09-04T01:05:03.107Z,95621
2022-09-04T01:06:06.125Z,95624.7
2022-09-04T01:07:08.925Z,95622.3
2022-09-04T01:09:15.845Z,95626.5
2022-09-04T01:10:17.771Z,95622.2
2022-09-04T01:11:19.968Z,95624.8
2022-09-04T01:12:22.445Z,95625.3
2022-09-04T01:13:24.910Z,95623.3
2022-09-04T01:14:27.090Z,95626.3
2022-09-04T01:15:29.554Z,95624.4
2022-09-04T01:16:31.702Z,95625
2022-09-04T01:17:34.299Z,95625.5
2022-09-04T01:18:36.505Z,95623.9
2022-09-04T01:19:38.988Z,95627.5
2022-09-04T01:20:43.227Z,95630.3
2022-09-04T01:21:45.424Z,95628.6
2022-09-04T01:22:47.340Z,95629.1
2022-09-04T01:23:49.927Z,95629.8
2022-09-04T01:24:52.416Z,95631.1
2022-09-04T01:25:54.623Z,95630.9
2022-09-04T01:26:56.825Z,95632.7
2022-09-04T01:27:59.319Z,95634.2
2022-09-04T01:29:01.538Z,95634.8
2022-09-04T01:30:03.741Z,95632.8
2022-09-04T01:31:06.408Z,95633.2
2022-09-04T01:32:08.759Z,95637
2022-09-04T01:33:11.238Z,95634.9
2022-09-04T01:34:13.714Z,95632.2
2022-09-04T01:35:15.916Z,95635.2
2022-09-04T01:36:18.408Z,95638.1
2022-09-04T01:37:20.889Z,95634.1
2022-09-04T01:38:23.460Z,95634.4
2022-09-04T01:39:26.428Z,95633.2
2022-09-04T01:42:38.709Z,95636.4
2022-09-04T01:43:40.639Z,95637.3
2022-09-04T01:44:42.832Z,95639.9
2022-09-04T01:45:45.278Z,95637.1
2022-09-04T01:46:47.832Z,95636
2022-09-04T01:47:50.303Z,95636.5
2022-09-04T01:48:52.772Z,95637.2
2022-09-04T01:49:55.744Z,95640.4
2022-09-04T01:50:57.956Z,95638.4
2022-09-04T01:52:00.445Z,95641.1
2022-09-04T01:53:03.008Z,95643
2022-09-04T01:54:05.211Z,95644.8
2022-09-04T01:55:07.677Z,95642.3
2022-09-04T01:56:10.180Z,95642.2
2022-09-04T01:57:12.649Z,95642
2022-09-04T01:58:14.858Z,95641.9
2022-09-04T01:59:17.064Z,95639.5
2022-09-04T02:00:19.544Z,95642.3
2022-09-04T02:01:22.931Z,95640.7
2022-09-04T02:02:25.831Z,95638.6
2022-09-04T02:03:28.789Z,95636.3
2022-09-04T02:04:30.806Z,95640.3
2022-09-04T02:05:33.282Z,95642
2022-09-04T02:06:35.775Z,95638.5
2022-09-04T02:07:38.247Z,95639.1
2022-09-04T02:08:40.780Z,95638.6
2022-09-04T02:09:43.254Z,95639.5
2022-09-04T02:10:45.462Z,95642.8
2022-09-04T02:11:47.932Z,95640
2022-09-04T02:12:50.416Z,95641.5
2022-09-04T02:13:52.979Z,95643.3
2022-09-04T02:14:55.456Z,95642.2
2022-09-04T02:15:57.903Z,95648.1
2022-09-04T02:17:00.433Z,95643.7
2022-09-04T02:18:02.409Z,95647.3
2022-09-04T02:19:04.619Z,95644.6
2022-09-04T02:20:07.125Z,95640.7
2022-09-04T02:21:09.602Z,95643.5
2022-09-04T02:22:12.068Z,95647.9
2022-09-04T02:23:14.271Z,95643.2
2022-09-04T02:24:16.739Z,95647.4
2022-09-04T02:25:19.239Z,95645.6
2022-09-04T02:26:21.714Z,95643.1
2022-09-04T02:27:23.908Z,95646.9
2022-09-04T02:28:27.059Z,95647.5
2022-09-04T02:30:34.532Z,95643.8
2022-09-04T02:31:37.223Z,95639.4
2022-09-04T02:32:39.792Z,95633.4
2022-09-04T02:33:41.989Z,95634.3
2022-09-04T02:34:44.462Z,95633.4
2022-09-04T02:35:46.941Z,95636.6
2022-09-04T02:37:54.404Z,95636.8
2022-09-04T02:38:56.878Z,95637.8
2022-09-04T02:39:59.598Z,95637.4
2022-09-04T02:41:02.244Z,95640.1
2022-09-04T02:42:04.721Z,95638.8
2022-09-04T02:43:07.197Z,95641.5
2022-09-04T02:44:09.665Z,95645.5
2022-09-04T02:45:12.136Z,95640.1
2022-09-04T02:46:14.619Z,95638.4
2022-09-04T02:47:17.029Z,95637.1
2022-09-04T02:48:19.777Z,95639.3
2022-09-04T02:49:22.094Z,95637.3
2022-09-04T02:50:24.567Z,95637.6
2022-09-04T02:51:26.774Z,95638.3
2022-09-04T02:52:28.711Z,95638.8
2022-09-04T02:53:31.207Z,95642.5
2022-09-04T02:54:33.669Z,95639
2022-09-04T02:55:35.874Z,95639.5
2022-09-04T02:56:38.067Z,95640.9
2022-09-04T02:57:42.592Z,95640.2
2022-09-04T02:58:45.081Z,95640.6
2022-09-04T02:59:47.559Z,95640.2
2022-09-04T03:00:50.343Z,95636.3
2022-09-04T03:01:52.804Z,95642.3
2022-09-04T03:02:55.323Z,95643.7
2022-09-04T03:03:57.524Z,95641.9
2022-09-04T03:04:59.713Z,95642.5
2022-09-04T03:06:02.256Z,95644.3
2022-09-04T03:07:05.889Z,95640.6
2022-09-04T03:08:08.366Z,95643.1
2022-09-04T03:09:10.628Z,95642.8
2022-09-04T03:10:12.590Z,95643.6
2022-09-04T03:11:14.791Z,95643.8
2022-09-04T03:12:16.998Z,95646.4
2022-09-04T03:13:19.466Z,95641.8
2022-09-04T03:14:21.941Z,95642.2
2022-09-04T03:15:24.977Z,95642.3
2022-09-04T03:16:27.733Z,95639.7
2022-09-04T03:17:30.084Z,95641.9
2022-09-04T03:18:32.555Z,95647.1
2022-09-04T03:19:37.456Z,95645.5
2022-09-04T03:20:39.935Z,95649.2
2022-09-04T03:21:42.411Z,95648.6
2022-09-04T03:22:44.877Z,95651.3
2022-09-04T03:23:47.355Z,95648.3
2022-09-04T03:24:49.555Z,95653
2022-09-04T03:25:52.023Z,95653.6
2022-09-04T03:26:54.200Z,95653.1
2022-09-04T03:27:56.702Z,95654.8
2022-09-04T03:28:58.895Z,95654.5
2022-09-04T03:30:01.109Z,95655.8
2022-09-04T03:31:03.784Z,95659.5
2022-09-04T03:33:11.298Z,95659.1
2022-09-04T03:34:13.779Z,95650.9
2022-09-04T03:35:16.727Z,95659.2
2022-09-04T03:36:18.653Z,95658.3
2022-09-04T03:37:21.127Z,95658
2022-09-04T03:38:24.012Z,95656.1
2022-09-04T03:39:26.421Z,95656.8
2022-09-04T03:40:28.659Z,95657.1
2022-09-04T03:41:31.173Z,95657.9
2022-09-04T03:42:33.647Z,95656.9
2022-09-04T03:43:35.289Z,95660.7
2022-09-04T03:44:38.589Z,95661.3
2022-09-04T03:45:41.066Z,95664.2
2022-09-04T03:46:43.710Z,95667.1
2022-09-04T03:47:46.346Z,95665.2
2022-09-04T03:48:48.823Z,95664.3
2022-09-04T03:49:51.304Z,95670.3
2022-09-04T03:50:53.775Z,95668.1
2022-09-04T03:51:56.251Z,95670.3
2022-09-04T03:52:58.773Z,95669.4
2022-09-04T03:54:01.268Z,95665.9
2022-09-04T03:55:03.473Z,95670
2022-09-04T03:56:05.942Z,95667.6
2022-09-04T03:57:08.158Z,95667.9
2022-09-04T03:58:10.625Z,95667.7
2022-09-04T03:59:13.095Z,95669.4
2022-09-04T04:00:15.558Z,95669.7
2022-09-04T04:02:23.467Z,95663.8
2022-09-04T04:03:27.653Z,95667.5
2022-09-04T04:04:30.117Z,95673
2022-09-04T04:05:32.591Z,95671.7
2022-09-04T04:06:35.057Z,95669.9
2022-09-04T04:07:37.535Z,95670.4
2022-09-04T04:08:40.002Z,95672.6
2022-09-04T04:09:42.550Z,95669.9
2022-09-04T04:10:45.019Z,95671.2
2022-09-04T04:11:47.519Z,95669.9
2022-09-04T04:12:51.150Z,95674.1
2022-09-04T04:13:53.632Z,95673.9
2022-09-04T04:14:56.096Z,95674.5
2022-09-04T04:15:58.279Z,95676.1
2022-09-04T04:17:01.643Z,95675.8
2022-09-04T04:18:08.109Z,95676.2
2022-09-04T04:19:10.622Z,95682
2022-09-04T04:20:13.113Z,95676.1
2022-09-04T04:21:15.591Z,95676.8
2022-09-04T04:22:18.063Z,95682.2
2022-09-04T04:23:20.533Z,95683.4
2022-09-04T04:24:23.009Z,95687
2022-09-04T04:25:25.509Z,95686
2022-09-04T04:26:27.971Z,95684.9
2022-09-04T04:27:31.010Z,95688.7
2022-09-04T04:28:33.509Z,95688.5
2022-09-04T04:29:35.438Z,95692.6
2022-09-04T04:30:38.627Z,95690.5
2022-09-04T04:31:41.432Z,95694.2
2022-09-04T04:32:44.000Z,95688.8
2022-09-04T04:33:46.196Z,95694
2022-09-04T04:34:48.658Z,95693.5
2022-09-04T04:35:50.843Z,95698.3
2022-09-04T04:36:52.767Z,95698.7
2022-09-04T04:37:55.243Z,95701.2
2022-09-04T04:38:57.708Z,95700.1
2022-09-04T04:40:00.392Z,95701.9
2022-09-04T04:41:02.456Z,95697.9
2022-09-04T04:42:04.641Z,95703.8
2022-09-04T04:43:06.843Z,95709.1
2022-09-04T04:44:09.051Z,95707.2
2022-09-04T04:45:11.533Z,95709.5
2022-09-04T04:46:14.184Z,95712.9
2022-09-04T04:47:16.755Z,95714.2
2022-09-04T04:48:19.482Z,95713.2
2022-09-04T04:49:21.808Z,95716.8
2022-09-04T04:50:23.733Z,95715.4
2022-09-04T04:51:26.232Z,95719.6
2022-09-04T04:52:28.220Z,95717.9
2022-09-04T04:53:30.489Z,95717.3
2022-09-04T04:54:32.692Z,95721.6
2022-09-04T04:55:34.885Z,95720.7
2022-09-04T04:56:37.380Z,95723.8
2022-09-04T04:57:39.586Z,95725.7
2022-09-04T04:58:41.784Z,95729.2
2022-09-04T04:59:45.072Z,95731.6
2022-09-04T05:00:47.553Z,95725.9
2022-09-04T05:01:50.607Z,95733.1
2022-09-04T05:02:53.604Z,95731.3
2022-09-04T05:03:56.029Z,95730.2
2022-09-04T05:04:58.228Z,95732.3
2022-09-04T05:06:00.152Z,95734.9
2022-09-04T05:07:02.095Z,95735.9
2022-09-04T05:09:09.558Z,95738.2
2022-09-04T05:10:12.035Z,95740.3
2022-09-04T05:11:14.501Z,95740.4
2022-09-04T05:12:16.977Z,95741.3
2022-09-04T05:13:19.457Z,95743
2022-09-04T05:14:21.944Z,95744.3
2022-09-04T05:15:24.148Z,95744.9
2022-09-04T05:16:26.527Z,95745
2022-09-04T05:17:30.677Z,95747.3
2022-09-04T05:18:33.506Z,95746.3
2022-09-04T05:19:35.683Z,95744
2022-09-04T05:20:38.161Z,95747.9
2022-09-04T05:21:40.631Z,95748
2022-09-04T05:22:42.829Z,95750
2022-09-04T05:23:45.060Z,95751.3
2022-09-04T05:25:54.976Z,95752.9
2022-09-04T05:26:58.956Z,95754.5
2022-09-04T05:28:01.440Z,95758.9
2022-09-04T05:29:03.638Z,95756.5
2022-09-04T05:30:06.109Z,95759.1
2022-09-04T05:31:08.794Z,95763.2
2022-09-04T05:32:11.362Z,95760.4
2022-09-04T05:33:13.544Z,95763.1
2022-09-04T05:34:16.011Z,95762.4
2022-09-04T05:35:18.458Z,95763.8
2022-09-04T05:36:21.139Z,95766.4
2022-09-04T05:37:25.276Z,95769.9
2022-09-04T05:38:28.328Z,95769.7
2022-09-04T05:39:32.197Z,95766.8
2022-09-04T05:40:34.735Z,95768.3
2022-09-04T05:41:36.682Z,95771.3
2022-09-04T05:42:39.149Z,95772.5
2022-09-04T05:43:41.624Z,95771.8
2022-09-04T05:44:43.813Z,95775.4
2022-09-04T05:45:46.294Z,95773.5
2022-09-04T05:47:53.489Z,95783.3
2022-09-04T05:48:55.963Z,95777.3
2022-09-04T05:49:58.440Z,95780
2022-09-04T05:51:00.623Z,95783.2
2022-09-04T05:52:02.848Z,95777.3
2022-09-04T05:53:05.324Z,95776.9
2022-09-04T05:54:07.801Z,95779.4
2022-09-04T05:55:10.277Z,95781.8
2022-09-04T05:56:12.184Z,95785.3
2022-09-04T05:57:14.677Z,95781.5
2022-09-04T05:58:17.195Z,95786.8
2022-09-04T05:59:19.792Z,95792.1
2022-09-04T06:00:22.010Z,95794.4
2022-09-04T06:01:24.016Z,95795.8
2022-09-04T06:02:27.386Z,95799.7
2022-09-04T06:03:29.862Z,95802.3
2022-09-04T06:04:32.347Z,95801.1
2022-09-04T06:05:34.553Z,95801.6
2022-09-04T06:06:36.520Z,95803.4
2022-09-04T06:07:39.087Z,95803.3
2022-09-04T06:08:41.578Z,95805.2
2022-09-04T06:09:44.062Z,95805.1
2022-09-04T06:10:46.289Z,95810.5
2022-09-04T06:11:48.783Z,95808.2
2022-09-04T06:12:51.252Z,95807.7
2022-09-04T06:13:53.741Z,95808.5
2022-09-04T06:14:56.209Z,95804.4
2022-09-04T06:15:59.073Z,95806.7
2022-09-04T06:17:01.663Z,95806.5
2022-09-04T06:18:04.151Z,95810
2022-09-04T06:19:06.354Z,95806.2
2022-09-04T06:20:08.575Z,95808.5
2022-09-04T06:21:11.036Z,95810.3
2022-09-04T06:22:13.517Z,95814.5
2022-09-04T06:23:15.422Z,95812.9
2022-09-04T06:24:17.925Z,95819
2022-09-04T06:25:20.401Z,95822
2022-09-04T06:26:26.863Z,95823.7
2022-09-04T06:27:29.067Z,95822.8
2022-09-04T06:28:35.527Z,95827.1
2022-09-04T06:29:37.731Z,95828
2022-09-04T06:30:40.204Z,95827.1
2022-09-04T06:31:42.964Z,95822
2022-09-04T06:33:50.196Z,95823.3
2022-09-04T06:34:52.678Z,95823.2
2022-09-04T06:35:55.142Z,95823.4
2022-09-04T06:36:57.625Z,95821.5
2022-09-04T06:38:00.098Z,95824.8
2022-09-04T06:39:02.600Z,95825.7
2022-09-04T06:40:05.481Z,95827.8
2022-09-04T06:41:08.076Z,95826
2022-09-04T06:42:10.266Z,95832.7
2022-09-04T06:43:13.408Z,95833.4
2022-09-04T06:44:15.628Z,95833.8
2022-09-04T06:45:17.850Z,95833.9
2022-09-04T06:46:20.529Z,95830.1
2022-09-04T06:47:22.876Z,95829.5
2022-09-04T06:48:25.274Z,95830.2
2022-09-04T06:49:28.001Z,95828.8
2022-09-04T06:50:30.189Z,95835.6
2022-09-04T06:51:33.982Z,95834.7
2022-09-04T06:52:35.991Z,95833.1
2022-09-04T06:53:38.656Z,95833.6
2022-09-04T06:54:41.214Z,95832.6
2022-09-04T06:55:43.695Z,95829.8
2022-09-04T06:56:46.164Z,95835.3
2022-09-04T06:57:48.639Z,95836.9
2022-09-04T06:58:51.122Z,95834.4
2022-09-04T06:59:53.601Z,95834.9
2022-09-04T07:00:56.078Z,95838.5
2022-09-04T07:01:59.085Z,95838.7
2022-09-04T07:03:01.514Z,95839.5
2022-09-04T07:04:03.993Z,95837.5
2022-09-04T07:05:06.193Z,95842.7
2022-09-04T07:06:08.141Z,95839.9
2022-09-04T07:07:10.648Z,95843.5
2022-09-04T07:08:12.577Z,95845.1
2022-09-04T07:09:14.239Z,95842.3
2022-09-04T07:10:16.716Z,95842.4
2022-09-04T07:11:19.185Z,95844.9
2022-09-04T07:12:21.379Z,95839
2022-09-04T07:13:23.849Z,95840.8
2022-09-04T07:14:26.328Z,95846
2022-09-04T07:15:29.991Z,95849
2022-09-04T07:16:32.277Z,95848.3
2022-09-04T07:17:34.773Z,95847.8
2022-09-04T07:18:37.277Z,95851.7
2022-09-04T07:19:39.742Z,95846.6
2022-09-04T07:20:41.944Z,95853.1
2022-09-04T07:21:44.144Z,95849.9
2022-09-04T07:22:46.625Z,95857.5
2022-09-04T07:23:49.116Z,95853
2022-09-04T07:24:51.021Z,95854.6
2022-09-04T07:25:53.217Z,95853.5
2022-09-04T07:26:55.694Z,95851.4
2022-09-04T07:27:58.180Z,95855.7
2022-09-04T07:29:00.644Z,95855.3
2022-09-04T07:30:03.132Z,95857.3
2022-09-04T07:31:05.529Z,95855.2
2022-09-04T07:32:07.840Z,95855.7
2022-09-04T07:33:10.006Z,95857.2
2022-09-04T07:34:12.598Z,95862.4
2022-09-04T07:35:14.797Z,95860.6
2022-09-04T07:36:17.272Z,95860.3
2022-09-04T07:37:19.477Z,95863.5
2022-09-04T07:38:21.873Z,95861
2022-09-04T07:39:24.594Z,95866.3
2022-09-04T07:41:31.619Z,95864.5
2022-09-04T07:42:33.870Z,95863.3
2022-09-04T07:43:36.341Z,95861
2022-09-04T07:44:38.812Z,95860.1
2022-09-04T07:45:41.295Z,95866
2022-09-04T07:46:44.029Z,95868.9
2022-09-04T07:47:46.374Z,95869.7
2022-09-04T07:48:48.867Z,95869.3
2022-09-04T07:49:51.340Z,95872.1
2022-09-04T07:50:54.547Z,95873.8
2022-09-04T07:51:57.015Z,95873
2022-09-04T07:54:04.493Z,95872.1
2022-09-04T07:55:06.967Z,95879.7
2022-09-04T07:56:09.147Z,95879.4
2022-09-04T07:57:11.660Z,95882.9
2022-09-04T07:58:14.161Z,95882.7
2022-09-04T07:59:16.626Z,95883.7
2022-09-04T08:00:19.176Z,95884.4
2022-09-04T08:01:21.742Z,95886.8
2022-09-04T08:02:24.007Z,95890.2
2022-09-04T08:03:26.008Z,95892.4
2022-09-04T08:04:28.519Z,95893.5
2022-09-04T08:05:31.051Z,95891.9
2022-09-04T08:06:32.954Z,95892.5
2022-09-04T08:07:35.454Z,95895.9
2022-09-04T08:08:37.649Z,95894.8
2022-09-04T08:09:39.850Z,95897.5
2022-09-04T08:10:41.754Z,95902
2022-09-04T08:11:43.660Z,95898
2022-09-04T08:12:45.888Z,95897.6
2022-09-04T08:13:48.099Z,95906.5
2022-09-04T08:14:50.590Z,95904.6
2022-09-04T08:15:53.277Z,95899.3
2022-09-04T08:16:55.802Z,95900.8
2022-09-04T08:17:57.998Z,95909.7
2022-09-04T08:19:00.333Z,95907.4
2022-09-04T08:20:02.547Z,95912.9
2022-09-04T08:21:04.755Z,95914
2022-09-04T08:22:07.242Z,95911.7
2022-09-04T08:23:09.709Z,95916.1
2022-09-04T08:24:12.189Z,95908.7
2022-09-04T08:25:15.013Z,95905.7
2022-09-04T08:26:17.509Z,95910.8
2022-09-04T08:27:20.011Z,95919.5
2022-09-04T08:28:22.773Z,95906.6
2022-09-04T08:29:25.271Z,95911.8
2022-09-04T08:30:27.789Z,95911.7
2022-09-04T08:31:30.663Z,95909.5
2022-09-04T08:33:37.980Z,95917.2
2022-09-04T08:34:40.598Z,95915.6
2022-09-04T08:35:43.149Z,95917.9
2022-09-04T08:36:45.730Z,95913.1
2022-09-04T08:37:48.221Z,95921.4
2022-09-04T08:38:50.438Z,95920.8
2022-09-04T08:39:53.108Z,95919.9
2022-09-04T08:40:55.654Z,95924.3
2022-09-04T08:41:57.845Z,95926.6
2022-09-04T08:42:59.768Z,95921.5
2022-09-04T08:44:02.246Z,95924.1
2022-09-04T08:45:04.152Z,95926.1
2022-09-04T08:46:06.790Z,95923.7
2022-09-04T08:47:09.108Z,95925.5
2022-09-04T08:48:12.110Z,95925
2022-09-04T08:49:18.567Z,95928.8
2022-09-04T08:50:21.049Z,95928.6
2022-09-04T08:51:24.485Z,95929.3
2022-09-04T08:52:27.493Z,95933.2
2022-09-04T08:53:30.036Z,95933.7
2022-09-04T08:54:32.233Z,95935.2
2022-09-04T08:55:34.700Z,95936.2
2022-09-04T08:56:36.902Z,95934
2022-09-04T08:57:39.104Z,95936.2
2022-09-04T08:59:46.582Z,95939.2
2022-09-04T09:00:49.073Z,95936.3
2022-09-04T09:01:51.321Z,95938
2022-09-04T09:02:54.131Z,95936.3
2022-09-04T09:03:56.443Z,95937.6
2022-09-04T09:04:58.934Z,95940.4
2022-09-04T09:06:01.407Z,95936.3
2022-09-04T09:07:03.640Z,95937.7
2022-09-04T09:08:05.858Z,95937.5
2022-09-04T09:09:08.420Z,95935.4
2022-09-04T09:10:10.637Z,95935.2
2022-09-04T09:12:19.942Z,95937.3
2022-09-04T09:13:22.419Z,95937.3
2022-09-04T09:14:24.887Z,95935.5
2022-09-04T09:15:27.368Z,95934.9
2022-09-04T09:16:30.131Z,95936.8
2022-09-04T09:18:40.452Z,95938.4
2022-09-04T09:19:42.975Z,95936.7
2022-09-04T09:20:45.437Z,95934.3
2022-09-04T09:21:47.640Z,95940.4
2022-09-04T09:22:49.840Z,95938.1
2022-09-04T09:23:52.329Z,95936.2
2022-09-04T09:24:54.517Z,95936.1
2022-09-04T09:25:56.443Z,95935.8
2022-09-04T09:26:58.634Z,95931.9
2022-09-04T09:28:01.112Z,95930.6
2022-09-04T09:29:03.307Z,95930.9
2022-09-04T09:30:05.497Z,95926.9
2022-09-04T09:31:07.974Z,95932.9
2022-09-04T09:32:10.030Z,95925.5
2022-09-04T09:33:12.501Z,95933.8
2022-09-04T09:34:14.983Z,95932.8
2022-09-04T09:35:17.451Z,95934.6
2022-09-04T09:36:19.385Z,95928.2
2022-09-04T09:37:21.589Z,95929.8
2022-09-04T09:38:28.266Z,95924.7
2022-09-04T09:39:30.793Z,95927.3
2022-09-04T09:40:33.071Z,95927.9
2022-09-04T09:41:35.275Z,95930.4
2022-09-04T09:42:37.477Z,95930.7
2022-09-04T09:43:39.406Z,95924.9
2022-09-04T09:44:41.884Z,95921.4
2022-09-04T09:45:44.602Z,95925.4
2022-09-04T09:46:46.909Z,95927.2
2022-09-04T09:47:49.428Z,95920.7
2022-09-04T09:48:51.893Z,95919
2022-09-04T09:49:54.380Z,95918.7
2022-09-04T09:50:56.576Z,95917
2022-09-04T09:51:59.064Z,95920.4
2022-09-04T09:53:01.254Z,95920.7
2022-09-04T09:54:03.730Z,95915.4
2022-09-04T09:55:05.925Z,95921.1
2022-09-04T09:56:09.466Z,95917.2
2022-09-04T09:57:12.109Z,95920
2022-09-04T09:58:14.599Z,95913.9
2022-09-04T09:59:16.495Z,95917.2
2022-09-04T10:00:18.436Z,95913.8
2022-09-04T10:01:20.812Z,95913.6
2022-09-04T10:02:23.374Z,95916.8
2022-09-04T10:03:26.743Z,95911.7
2022-09-04T10:05:33.676Z,95907.4
2022-09-04T10:06:36.154Z,95903.8
2022-09-04T10:07:38.344Z,95906.9
2022-09-04T10:08:40.820Z,95898.7
2022-09-04T10:09:43.289Z,95902.5
2022-09-04T10:10:45.764Z,95900.8
2022-09-04T10:11:48.241Z,95905.7
2022-09-04T10:12:50.720Z,95904.1
2022-09-04T10:13:52.921Z,95904.8
2022-09-04T10:14:55.392Z,95906.4
2022-09-04T10:15:57.859Z,95907.1
2022-09-04T10:17:00.788Z,95909
2022-09-04T10:18:03.332Z,95904.8
2022-09-04T10:19:05.514Z,95908
2022-09-04T10:20:07.685Z,95910.3
2022-09-04T10:21:10.156Z,95913
2022-09-04T10:22:12.627Z,95917.4
2022-09-04T10:23:15.117Z,95920.5
2022-09-04T10:24:17.318Z,95920.8
2022-09-04T10:25:19.817Z,95919.8
2022-09-04T10:26:22.298Z,95921
2022-09-04T10:27:29.348Z,95919.3
2022-09-04T10:28:31.551Z,95921
2022-09-04T10:29:34.019Z,95921
2022-09-04T10:30:36.428Z,95921.3
2022-09-04T10:31:38.969Z,95922.6
2022-09-04T10:32:41.445Z,95925.5
2022-09-04T10:33:43.346Z,95925.5
2022-09-04T10:34:45.824Z,95924.5
2022-09-04T10:35:48.293Z,95921.3
2022-09-04T10:36:50.488Z,95921.2
2022-09-04T10:37:52.959Z,95919.2
2022-09-04T10:38:55.465Z,95911.6
2022-09-04T10:39:58.143Z,95920.3
2022-09-04T10:41:00.488Z,95911.6
2022-09-04T10:42:02.960Z,95917.9
2022-09-04T10:43:05.162Z,95915.1
2022-09-04T10:44:07.720Z,95913.7
2022-09-04T10:45:09.902Z,95910
2022-09-04T10:47:16.817Z,95914
2022-09-04T10:48:19.233Z,95918.7
2022-09-04T10:49:21.829Z,95911.2
2022-09-04T10:50:24.044Z,95914.1
2022-09-04T10:51:26.536Z,95918.4
2022-09-04T10:52:29.015Z,95918.2
2022-09-04T10:53:33.070Z,95917
2022-09-04T10:54:35.549Z,95920.2
2022-09-04T10:55:38.048Z,95923.8
2022-09-04T10:56:40.515Z,95924.4
2022-09-04T10:57:42.993Z,95921
2022-09-04T10:58:45.908Z,95920.2
2022-09-04T10:59:49.899Z,95921.6
2022-09-04T11:00:52.435Z,95919.4
2022-09-04T11:01:55.325Z,95922.1
2022-09-04T11:02:57.657Z,95920.5
2022-09-04T11:04:01.300Z,95922.6
2022-09-04T11:05:03.777Z,95925.9
2022-09-04T11:06:06.731Z,95922.3
2022-09-04T11:07:08.925Z,95922.9
2022-09-04T11:08:11.407Z,95920.6
2022-09-04T11:09:13.894Z,95923.8
2022-09-04T11:10:16.362Z,95917.7
2022-09-04T11:11:18.943Z,95919.8
2022-09-04T11:12:21.471Z,95920.3
2022-09-04T11:13:24.302Z,95920
2022-09-04T11:14:26.965Z,95916.9
2022-09-04T11:15:29.440Z,95919.1
2022-09-04T11:16:32.202Z,95918.2
2022-09-04T11:17:34.743Z,95920.7
2022-09-04T11:18:37.213Z,95924.5
2022-09-04T11:19:39.694Z,95922.1
2022-09-04T11:20:42.163Z,95923.8
2022-09-04T11:21:44.369Z,95925.2
2022-09-04T11:22:46.848Z,95922.8
2022-09-04T11:23:49.752Z,95924.7
2022-09-04T11:24:51.891Z,95921.9
2022-09-04T11:25:54.391Z,95923
2022-09-04T11:26:56.864Z,95921.6
2022-09-04T11:27:59.342Z,95917.4
2022-09-04T11:29:01.806Z,95911
2022-09-04T11:30:04.913Z,95914.6
2022-09-04T11:31:07.121Z,95909.7
2022-09-04T11:32:09.599Z,95909
2022-09-04T11:33:12.067Z,95910.2
2022-09-04T11:34:14.551Z,95909.5
2022-09-04T11:35:16.471Z,95913.1
2022-09-04T11:36:18.944Z,95908
2022-09-04T11:37:21.119Z,95908.9
2022-09-04T11:38:23.597Z,95909.9
2022-09-04T11:39:26.307Z,95920.7
2022-09-04T11:40:28.903Z,95919.3
2022-09-04T11:41:31.385Z,95918.7
2022-09-04T11:42:33.856Z,95915.7
2022-09-04T11:44:41.323Z,95913.2
2022-09-04T11:45:44.082Z,95922
2022-09-04T11:46:46.678Z,95910
2022-09-04T11:47:48.613Z,95913.9
2022-09-04T11:48:51.074Z,95917.6
2022-09-04T11:49:53.559Z,95916.7
2022-09-04T11:50:56.043Z,95918.2
2022-09-04T11:51:58.319Z,95916
2022-09-04T11:53:00.522Z,95908.7
2022-09-04T11:54:02.999Z,95909.6
2022-09-04T11:55:05.214Z,95908
2022-09-04T11:56:07.828Z,95905
2022-09-04T11:57:10.007Z,95913.3
2022-09-04T11:58:11.941Z,95907.4
2022-09-04T11:59:14.136Z,95917.7
2022-09-04T12:00:16.631Z,95917.4
2022-09-04T12:01:19.128Z,95921.5
2022-09-04T12:02:22.052Z,95918.5
2022-09-04T12:03:24.913Z,95916.4
2022-09-04T12:04:27.566Z,95919.9
2022-09-04T12:05:30.039Z,95916.2
2022-09-04T12:06:32.519Z,95915.6
2022-09-04T12:08:39.992Z,95922.9
2022-09-04T12:09:42.463Z,95925.2
2022-09-04T12:10:44.949Z,95915.1
2022-09-04T12:11:47.688Z,95922.9
2022-09-04T12:12:53.589Z,95920.6
2022-09-04T12:13:56.074Z,95918.6
2022-09-04T12:16:03.469Z,95913.1
2022-09-04T12:17:05.776Z,95914.2
2022-09-04T12:18:08.257Z,95909.5
2022-09-04T12:19:10.739Z,95912
2022-09-04T12:20:16.894Z,95905.9
2022-09-04T12:21:19.073Z,95907.7
2022-09-04T12:22:21.555Z,95913.2
2022-09-04T12:23:24.367Z,95908.7
2022-09-04T12:24:26.730Z,95914.4
2022-09-04T12:25:29.256Z,95906.4
2022-09-04T12:26:32.725Z,95910.7
2022-09-04T12:27:34.952Z,95916.1
2022-09-04T12:28:37.161Z,95915.6
2022-09-04T12:29:39.642Z,95915.2
2022-09-04T12:30:42.131Z,95907.4
2022-09-04T12:32:50.656Z,95903
2022-09-04T12:33:52.860Z,95902.8
2022-09-04T12:34:55.063Z,95905.9
2022-09-04T12:35:57.558Z,95906.5
2022-09-04T12:37:00.030Z,95909
2022-09-04T12:38:02.218Z,95903.4
2022-09-04T12:39:04.702Z,95908.3
2022-09-04T12:40:06.843Z,95906.3
2022-09-04T12:41:09.443Z,95905.8
2022-09-04T12:42:11.630Z,95914.4
2022-09-04T12:43:14.108Z,95905.2
2022-09-04T12:44:16.598Z,95906.3
2022-09-04T12:45:19.207Z,95909.3
2022-09-04T12:46:21.312Z,95907.5
2022-09-04T12:47:23.521Z,95907.8
2022-09-04T12:48:26.028Z,95909.7
2022-09-04T12:49:28.517Z,95911.3
2022-09-04T12:50:31.011Z,95911.6
2022-09-04T12:51:33.510Z,95905.6
2022-09-04T12:52:36.004Z,95907.6
2022-09-04T12:53:37.999Z,95906.4
2022-09-04T12:54:40.487Z,95904.9
2022-09-04T12:55:42.688Z,95904.1
2022-09-04T12:57:50.680Z,95906
2022-09-04T12:58:52.881Z,95905.7
2022-09-04T12:59:55.349Z,95906.8
2022-09-04T13:00:58.105Z,95905.7
2022-09-04T13:02:01.270Z,95906.6
2022-09-04T13:03:04.044Z,95908.2
2022-09-04T13:04:10.453Z,95905.7
2022-09-04T13:05:12.929Z,95907.5
2022-09-04T13:06:15.411Z,95912.4
2022-09-04T13:07:17.786Z,95910.3
2022-09-04T13:08:20.275Z,95917.7
2022-09-04T13:09:22.755Z,95914.7
2022-09-04T13:10:24.968Z,95915.4
2022-09-04T13:11:27.450Z,95915.5